Time;durP1;ratioP1;P1;durP2;ratioP2;P2;SDS_P1;SDS_P2;PMS_P1;PMS_P2;Temp;Humidity;BMP_temperature;BMP_pressure;BME280_temperature;BME280_humidity;BME280_pressure;Samples;Min_cycle;Max_cycle;Signal;HPM_P1;HPM_P2
2022/05/31 00:00:34;;;;;;;;;12.25;12.25;;;;;18.38;37.81;100615.22;2054860;28;47655;-55
2022/05/31 00:01:36;;;;;;;;;14.40;13.20;;;;;18.37;37.70;100616.19;2067060;28;47874;-57
2022/05/31 00:02:37;;;;;;;;;12.80;11.20;;;;;18.38;37.72;100615.22;2066919;28;48249;-55
2022/05/31 00:03:37;;;;;;;;;11.75;10.50;;;;;18.39;37.70;100608.88;2086487;28;47517;-55
2022/05/31 00:04:38;;;;;;;;;10.75;10.75;;;;;18.39;37.71;100616.94;2088249;28;47523;-56
2022/05/31 00:05:38;;;;;;;;;10.25;9.50;;;;;18.39;37.58;100615.13;2053710;28;47381;-56
2022/05/31 00:06:39;;;;;;;;;11.00;11.00;;;;;18.41;37.56;100623.09;2053400;28;47338;-56
2022/05/31 00:07:40;;;;;;;;;12.50;11.75;;;;;18.40;37.63;100616.00;2055545;28;48078;-57
2022/05/31 00:08:41;;;;;;;;;11.60;11.40;;;;;18.40;37.72;100619.53;2058729;28;47861;-58
2022/05/31 00:09:42;;;;;;;;;18.00;17.50;;;;;18.39;37.66;100617.81;2062205;28;47644;-55
2022/05/31 00:10:42;;;;;;;;;12.20;12.20;;;;;18.39;37.76;100612.44;2059792;28;47773;-56
2022/05/31 00:11:43;;;;;;;;;21.00;20.50;;;;;18.39;37.85;100625.88;2061998;28;47133;-55
2022/05/31 00:12:43;;;;;;;;;23.25;20.75;;;;;18.40;37.71;100619.53;2095995;28;47164;-55
2022/05/31 00:13:44;;;;;;;;;24.00;24.00;;;;;18.41;37.60;100620.41;2097348;28;47436;-56
2022/05/31 00:14:45;;;;;;;;;23.50;22.00;;;;;18.41;37.53;100615.91;2061867;28;47567;-56
2022/05/31 00:15:45;;;;;;;;;18.80;18.20;;;;;18.41;37.54;100613.22;2057877;28;47330;-57
2022/05/31 00:16:47;;;;;;;;;20.00;18.50;;;;;18.41;37.52;100613.22;2060556;28;46696;-57
2022/05/31 00:17:47;;;;;;;;;15.40;15.40;;;;;18.41;37.78;100612.34;2063826;27;48066;-55
2022/05/31 00:18:48;;;;;;;;;21.75;20.50;;;;;18.41;37.50;100618.59;2061097;28;47846;-58
2022/05/31 00:19:48;;;;;;;;;17.75;15.75;;;;;18.42;37.31;100612.28;2077114;28;48033;-56
2022/05/31 00:20:48;;;;;;;;;21.50;21.50;;;;;18.42;37.19;100612.28;2068427;27;48092;-55
2022/05/31 00:22:00;;;;;;;;;19.75;18.00;;;;;18.41;37.50;100615.91;2093010;28;47455;-55
2022/05/31 00:23:01;;;;;;;;;17.60;17.60;;;;;18.39;36.93;100612.44;2073277;28;47838;-57
2022/05/31 00:24:03;;;;;;;;;22.20;20.40;;;;;18.38;37.38;100613.41;2089129;27;47969;-57
2022/05/31 00:25:05;;;;;;;;;16.00;16.00;;;;;18.36;37.58;100612.63;2054255;27;48045;-57
2022/05/31 00:26:05;;;;;;;;;18.40;17.20;;;;;18.35;37.35;100610.88;2066958;28;46719;-55
2022/05/31 00:27:07;;;;;;;;;13.75;13.75;;;;;18.37;37.31;100616.19;2059142;27;47142;-57
2022/05/31 00:28:08;;;;;;;;;10.60;10.60;;;;;18.37;37.44;100616.19;2091634;28;48337;-55
2022/05/31 00:29:10;;;;;;;;;10.25;8.50;;;;;18.37;37.14;100613.50;2057401;28;48037;-56
2022/05/31 00:30:12;;;;;;;;;8.40;8.40;;;;;18.37;37.18;100618.88;2098882;27;47418;-56
2022/05/31 00:31:12;;;;;;;;;5.25;5.25;;;;;18.35;37.18;100613.56;2057863;28;47995;-57
2022/05/31 00:32:15;;;;;;;;;6.50;6.00;;;;;18.36;37.08;100618.00;2062042;28;47937;-55
2022/05/31 00:33:16;;;;;;;;;6.25;6.25;;;;;18.36;37.29;100622.50;2055436;28;47632;-54
2022/05/31 00:34:17;;;;;;;;;5.00;5.00;;;;;18.37;37.29;100624.22;2060566;28;47912;-58
2022/05/31 00:35:30;;;;;;;;;4.00;4.00;;;;;18.36;37.44;100618.00;2061194;28;47769;-55
2022/05/31 00:36:31;;;;;;;;;4.75;4.75;;;;;18.36;37.12;100618.00;2064971;28;47763;-57
2022/05/31 00:37:32;;;;;;;;;6.00;5.33;;;;;18.36;37.26;100622.50;2059357;28;47689;-55
2022/05/31 00:38:33;;;;;;;;;6.25;4.75;;;;;18.36;37.41;100618.00;2058936;28;47538;-56
2022/05/31 00:39:33;;;;;;;;;6.00;5.00;;;;;18.35;37.53;100618.94;2067820;28;47531;-55
2022/05/31 00:40:36;;;;;;;;;5.00;5.00;;;;;18.35;37.43;100618.94;2063935;28;47467;-56
2022/05/31 00:41:36;;;;;;;;;5.60;5.60;;;;;18.36;37.28;100618.00;2059158;28;47552;-56
2022/05/31 00:42:56;;;;;;;;;6.00;6.00;;;;;18.36;37.50;100627.88;2059099;28;48072;-57
2022/05/31 00:44:00;;;;;;;;;6.25;4.75;;;;;18.35;37.72;100626.13;2060375;28;47375;-56
2022/05/31 00:45:01;;;;;;;;;4.25;4.25;;;;;18.35;37.56;100627.00;2054611;28;48253;-56
2022/05/31 00:46:03;;;;;;;;;5.00;5.00;;;;;18.34;37.44;100622.59;2065609;28;47482;-56
2022/05/31 00:47:09;;;;;;;;;4.50;4.00;;;;;18.34;37.54;100622.59;2060025;28;47868;-55
2022/05/31 00:48:15;;;;;;;;;8.00;5.20;;;;;18.34;37.58;100619.03;2071118;27;74484;-54
2022/05/31 00:49:26;;;;;;;;;3.25;3.25;;;;;18.34;37.56;100625.28;2075502;27;48037;-56
2022/05/31 00:50:33;;;;;;;;;4.50;4.00;;;;;18.33;37.46;100620.84;2064449;28;48024;-57
2022/05/31 00:51:40;;;;;;;;;5.00;5.00;;;;;18.33;37.42;100620.00;2061565;28;48137;-56
2022/05/31 00:52:46;;;;;;;;;6.75;6.75;;;;;18.33;37.53;100620.00;2063946;28;46083;-56
2022/05/31 00:53:52;;;;;;;;;5.00;5.00;;;;;18.33;37.68;100615.50;2081990;28;47783;-58
2022/05/31 00:55:00;;;;;;;;;6.60;6.40;;;;;18.32;37.62;100619.13;2070017;28;47446;-57
2022/05/31 00:56:08;;;;;;;;;6.40;6.40;;;;;18.32;37.54;100612.88;2061539;28;48185;-55
2022/05/31 00:57:10;;;;;;;;;9.20;8.00;;;;;18.33;37.59;100614.63;2062357;28;48264;-57
2022/05/31 00:58:15;;;;;;;;;7.40;6.40;;;;;18.31;37.65;100609.34;2067826;28;47773;-57
2022/05/31 00:59:45;;;;;;;;;5.80;5.80;;;;;18.33;37.71;100609.25;2059706;28;47840;-57
2022/05/31 01:00:46;;;;;;;;;6.00;6.00;;;;;18.33;37.77;100607.44;2061221;28;48196;-56
2022/05/31 01:01:51;;;;;;;;;6.50;6.50;;;;;18.34;38.02;100605.59;2067565;28;47673;-56
2022/05/31 01:02:52;;;;;;;;;4.40;4.40;;;;;18.33;37.69;100610.13;2060545;28;47604;-56
2022/05/31 01:03:53;;;;;;;;;4.67;4.67;;;;;18.35;37.93;100607.34;2069475;27;47882;-56
2022/05/31 01:04:57;;;;;;;;;4.75;4.75;;;;;18.34;37.97;100611.84;2065510;28;47540;-57
2022/05/31 01:05:57;;;;;;;;;4.00;4.00;;;;;18.34;37.82;100613.66;2069269;28;47968;-57
2022/05/31 01:06:58;;;;;;;;;3.67;3.67;;;;;18.34;37.88;100610.97;2053798;28;47605;-56
2022/05/31 01:07:59;;;;;;;;;5.50;5.50;;;;;18.33;37.98;100611.94;2099060;28;47341;-57
2022/05/31 01:09:01;;;;;;;;;4.25;4.25;;;;;18.34;37.89;100608.28;2100556;28;47272;-56
2022/05/31 01:10:06;;;;;;;;;5.60;5.00;;;;;18.34;38.01;100611.84;2069940;28;47572;-56
2022/05/31 01:11:08;;;;;;;;;5.60;4.60;;;;;18.34;37.83;100614.53;2059327;28;47855;-57
2022/05/31 01:12:09;;;;;;;;;4.80;3.60;;;;;18.34;37.87;100610.97;2061732;28;46762;-53
2022/05/31 01:13:16;;;;;;;;;5.60;5.00;;;;;18.34;38.11;100613.66;2059316;28;46942;-57
2022/05/31 01:14:16;;;;;;;;;4.00;4.00;;;;;18.34;37.80;100608.28;2059640;28;47564;-56
2022/05/31 01:15:18;;;;;;;;;4.00;4.00;;;;;18.34;37.98;100613.66;2057358;28;47559;-56
2022/05/31 01:16:18;;;;;;;;;4.00;4.00;;;;;18.34;38.17;100609.16;2058170;28;48305;-61
2022/05/31 01:17:22;;;;;;;;;5.25;4.75;;;;;18.34;37.99;100608.28;2053519;28;47315;-55
2022/05/31 01:18:23;;;;;;;;;3.00;3.00;;;;;18.34;38.04;100602.91;2073938;28;47588;-57
2022/05/31 01:20:43;;;;;;;;;4.75;4.75;;;;;18.33;38.21;100603.88;2073762;27;47540;-56
2022/05/31 01:21:43;;;;;;;;;6.00;4.25;;;;;18.33;38.24;100610.13;2100338;28;46249;-55
2022/05/31 01:22:50;;;;;;;;;5.00;5.00;;;;;18.32;38.44;100605.69;2100436;28;47955;-54
2022/05/31 01:24:09;;;;;;;;;4.80;4.40;;;;;18.31;38.14;100597.72;2104649;27;47259;-57
2022/05/31 01:25:21;;;;;;;;;4.00;3.00;;;;;18.31;37.98;100605.78;2053724;28;48023;-57
2022/05/31 01:26:54;;;;;;;;;4.75;4.75;;;;;18.30;38.41;100604.06;2070080;28;48127;-57
2022/05/31 01:28:22;;;;;;;;;4.00;4.00;;;;;18.31;38.12;100600.41;2082918;28;47711;-58
2022/05/31 01:29:27;;;;;;;;;3.50;3.50;;;;;18.31;38.43;100603.97;2061758;28;47573;-56
2022/05/31 01:30:37;;;;;;;;;3.50;3.50;;;;;18.32;38.14;100604.81;2055806;28;47688;-56
2022/05/31 01:31:42;;;;;;;;;5.00;5.00;;;;;18.31;38.07;100605.78;2062864;28;46377;-58
2022/05/31 01:32:58;;;;;;;;;5.20;5.20;;;;;18.31;38.04;100605.78;2058938;28;47785;-57
2022/05/31 01:34:18;;;;;;;;;5.00;3.00;;;;;18.30;37.94;100601.38;2061056;28;47485;-57
2022/05/31 01:35:26;;;;;;;;;4.00;4.00;;;;;18.29;38.14;100602.28;2053908;28;47658;-57
2022/05/31 01:36:37;;;;;;;;;4.00;4.00;;;;;18.28;38.37;100603.25;2057899;28;47880;-57
2022/05/31 01:37:54;;;;;;;;;4.25;4.25;;;;;18.29;38.35;100599.59;2057743;28;47616;-57
2022/05/31 01:39:01;;;;;;;;;5.00;3.75;;;;;18.28;38.35;100600.56;2055271;28;47977;-57
2022/05/31 01:40:10;;;;;;;;;4.25;4.00;;;;;18.29;38.23;100608.53;2061799;28;47213;-58
2022/05/31 01:41:38;;;;;;;;;3.50;3.50;;;;;18.27;38.47;100599.69;2058866;28;47649;-57
2022/05/31 01:42:44;;;;;;;;;4.25;4.00;;;;;18.27;38.18;100604.19;2055704;28;47607;-55
2022/05/31 01:43:58;;;;;;;;;6.25;3.75;;;;;18.26;38.18;100607.84;2055248;28;47697;-57
2022/05/31 01:45:11;;;;;;;;;5.25;4.75;;;;;18.26;38.23;100608.69;2053872;28;47640;-57
2022/05/31 01:46:19;;;;;;;;;4.00;4.00;;;;;18.24;38.35;100611.47;2056322;28;47379;-57
2022/05/31 01:47:21;;;;;;;;;4.75;4.00;;;;;18.23;38.65;100608.88;2058206;28;47406;-57
2022/05/31 01:48:24;;;;;;;;;5.00;4.00;;;;;18.22;38.72;100609.84;2075152;28;47488;-57
2022/05/31 01:49:30;;;;;;;;;4.75;4.75;;;;;18.20;38.60;100607.25;2061020;28;46817;-57
2022/05/31 01:50:31;;;;;;;;;4.00;3.00;;;;;18.21;38.44;100610.78;2057490;28;48030;-55
2022/05/31 01:51:33;;;;;;;;;5.75;5.00;;;;;18.20;38.43;100604.56;2053867;28;47886;-57
2022/05/31 01:52:35;;;;;;;;;5.00;5.00;;;;;18.21;38.61;100614.34;2057208;28;47429;-57
2022/05/31 01:53:35;;;;;;;;;4.50;4.50;;;;;18.19;38.56;100613.56;2056439;28;48444;-56
2022/05/31 01:54:37;;;;;;;;;4.00;4.00;;;;;18.19;38.53;100610.00;2057343;28;47593;-56
2022/05/31 01:55:40;;;;;;;;;5.00;4.00;;;;;18.20;38.64;100609.91;2059925;28;47674;-57
2022/05/31 01:56:43;;;;;;;;;6.25;4.25;;;;;18.18;38.81;100606.47;2058444;28;47939;-57
2022/05/31 01:57:49;;;;;;;;;4.00;4.00;;;;;18.18;38.70;100617.19;2061728;28;48063;-55
2022/05/31 01:58:52;;;;;;;;;3.00;3.00;;;;;18.19;38.73;100608.19;2054681;28;47737;-56
2022/05/31 01:59:59;;;;;;;;;6.75;6.00;;;;;18.19;38.83;100615.38;2054331;28;47602;-57
2022/05/31 02:01:01;;;;;;;;;5.75;5.00;;;;;18.17;38.82;100602.03;2052298;28;47711;-57
2022/05/31 02:02:03;;;;;;;;;3.25;3.25;;;;;18.17;38.87;100607.41;2059594;28;47820;-56
2022/05/31 02:03:06;;;;;;;;;5.25;5.25;;;;;18.16;38.83;100616.38;2054198;28;47839;-56
2022/05/31 02:04:08;;;;;;;;;4.50;4.50;;;;;18.16;38.66;100615.53;2061660;28;48120;-57
2022/05/31 02:05:09;;;;;;;;;5.00;3.60;;;;;18.16;38.82;100611.03;2057664;28;48320;-56
2022/05/31 02:06:41;;;;;;;;;3.33;3.33;;;;;18.17;38.91;100617.28;2057873;28;47573;-56
2022/05/31 02:07:42;;;;;;;;;7.00;5.50;;;;;18.16;39.07;100602.97;2080807;28;47606;-57
2022/05/31 02:08:42;;;;;;;;;2.67;2.00;;;;;18.16;38.89;100613.72;2079576;28;47630;-56
2022/05/31 02:09:46;;;;;;;;;5.67;5.67;;;;;18.17;39.10;100601.19;2081119;28;48056;-55
2022/05/31 02:10:48;;;;;;;;;4.50;4.50;;;;;18.16;39.21;100616.38;2075806;28;47914;-57
2022/05/31 02:11:48;;;;;;;;;6.00;6.00;;;;;18.16;38.99;100613.72;2077775;28;47779;-57
2022/05/31 02:12:50;;;;;;;;;3.33;3.33;;;;;18.15;38.78;100611.97;2078743;28;47406;-57
2022/05/31 02:13:51;;;;;;;;;4.75;4.25;;;;;18.15;39.23;100619.16;2086071;28;47753;-57
2022/05/31 02:14:51;;;;;;;;;3.67;3.67;;;;;18.15;39.11;100616.47;2081238;28;47264;-56
2022/05/31 02:15:54;;;;;;;;;5.00;4.67;;;;;18.13;39.32;100621.94;2086791;28;47529;-53
2022/05/31 02:16:54;;;;;;;;;4.40;4.40;;;;;18.13;39.14;100623.75;2079976;28;48190;-57
2022/05/31 02:17:55;;;;;;;;;5.00;5.00;;;;;18.13;39.14;100621.06;2081717;28;47418;-57
2022/05/31 02:20:15;;;;;;;;;4.00;4.00;;;;;18.10;39.36;100624.81;2082155;28;47872;-56
2022/05/31 02:21:15;;;;;;;;;5.00;4.33;;;;;18.11;39.22;100628.34;2084410;28;46275;-53
2022/05/31 02:22:20;;;;;;;;;5.67;5.00;;;;;18.10;39.71;100626.63;2075926;28;47615;-55
2022/05/31 02:23:20;;;;;;;;;6.00;6.00;;;;;18.09;39.72;100625.75;2075140;28;48168;-56
2022/05/31 02:24:22;;;;;;;;;5.67;5.67;;;;;18.10;39.78;100621.25;2085329;28;47991;-56
2022/05/31 02:25:22;;;;;;;;;3.50;3.50;;;;;18.09;39.69;100625.75;2077745;28;47527;-55
2022/05/31 02:26:22;;;;;;;;;5.67;5.67;;;;;18.09;39.86;100622.19;2081803;28;47905;-57
2022/05/31 02:27:23;;;;;;;;;5.00;5.00;;;;;18.11;39.53;100625.66;2080067;28;45705;-56
2022/05/31 02:28:23;;;;;;;;;5.00;4.00;;;;;18.11;39.74;100625.66;2083581;28;48224;-56
2022/05/31 02:29:28;;;;;;;;;5.00;5.00;;;;;18.11;39.52;100626.53;2086309;28;47909;-56
2022/05/31 02:30:28;;;;;;;;;6.00;6.00;;;;;18.10;39.72;100616.75;2067167;28;48013;-54
2022/05/31 02:31:30;;;;;;;;;7.00;6.00;;;;;18.10;39.75;100616.75;2069336;28;47429;-57
2022/05/31 02:32:30;;;;;;;;;7.50;7.50;;;;;18.10;39.68;100623.94;2065849;28;47593;-58
2022/05/31 02:33:31;;;;;;;;;5.50;5.50;;;;;18.10;39.38;100615.88;2069456;28;48300;-57
2022/05/31 02:34:35;;;;;;;;;6.50;6.50;;;;;18.11;39.60;100614.91;2079967;28;47626;-57
2022/05/31 02:35:35;;;;;;;;;4.50;4.25;;;;;18.09;40.02;100623.06;2078548;28;47795;-56
2022/05/31 02:36:36;;;;;;;;;6.00;5.67;;;;;18.09;39.76;100619.50;2080567;28;48093;-56
2022/05/31 02:37:36;;;;;;;;;5.00;5.00;;;;;18.08;39.52;100618.66;2073331;28;47468;-55
2022/05/31 02:38:37;;;;;;;;;6.00;6.00;;;;;18.09;39.95;100620.38;2073407;28;47501;-56
2022/05/31 02:39:38;;;;;;;;;5.33;5.33;;;;;18.09;39.91;100617.69;2085011;28;47769;-55
2022/05/31 02:40:38;;;;;;;;;5.50;5.50;;;;;18.10;39.85;100618.56;2082707;28;47322;-56
2022/05/31 02:41:39;;;;;;;;;7.50;7.50;;;;;18.09;39.63;100619.50;2086224;28;47357;-57
2022/05/31 02:42:41;;;;;;;;;4.50;3.75;;;;;18.09;39.92;100616.81;2081496;28;47289;-55
2022/05/31 02:43:42;;;;;;;;;5.50;5.50;;;;;18.09;39.88;100623.06;2079721;28;48164;-55
2022/05/31 02:44:43;;;;;;;;;6.00;5.33;;;;;18.09;39.53;100617.69;2076284;27;47654;-55
2022/05/31 02:45:43;;;;;;;;;6.25;6.25;;;;;18.10;39.71;100624.81;2084323;28;47647;-55
2022/05/31 02:46:44;;;;;;;;;5.67;5.67;;;;;18.10;39.85;100616.75;2077620;27;47925;-58
2022/05/31 02:47:44;;;;;;;;;6.00;6.00;;;;;18.09;39.65;100615.00;2098043;28;47697;-57
2022/05/31 02:48:45;;;;;;;;;7.00;7.00;;;;;18.09;39.47;100619.50;2088582;28;47237;-56
2022/05/31 02:49:46;;;;;;;;;8.75;6.50;;;;;18.09;39.87;100620.38;2105526;27;47841;-56
2022/05/31 02:50:47;;;;;;;;;5.60;5.60;;;;;18.08;39.60;100618.66;2074859;27;47647;-57
2022/05/31 02:51:48;;;;;;;;;6.67;6.67;;;;;18.11;39.67;100628.34;2059734;28;47562;-55
2022/05/31 02:52:48;;;;;;;;;5.00;5.00;;;;;18.10;39.72;100621.25;2073188;27;47941;-55
2022/05/31 02:53:49;;;;;;;;;7.33;7.00;;;;;18.09;39.86;100625.75;2084672;28;47507;-56
2022/05/31 02:54:49;;;;;;;;;5.00;2.00;;;;;18.10;39.80;100615.88;2073008;27;47566;-56
2022/05/31 02:55:49;;;;;;;;;6.33;6.33;;;;;18.10;39.78;100623.94;2063133;28;47575;-56
2022/05/31 02:56:50;;;;;;;;;5.33;5.33;;;;;18.10;39.86;100616.75;2061935;28;47259;-57
2022/05/31 02:57:50;;;;;;;;;8.00;6.00;;;;;18.10;39.56;100623.94;2070715;28;47405;-56
2022/05/31 02:58:51;;;;;;;;;6.67;6.67;;;;;18.09;39.78;100615.00;2061175;28;46321;-55
2022/05/31 02:59:51;;;;;;;;;7.67;6.00;;;;;18.08;39.71;100618.66;2067316;28;47415;-58
2022/05/31 03:00:53;;;;;;;;;4.67;4.67;;;;;18.07;40.01;100616.06;2066354;27;47830;-55
2022/05/31 03:01:54;;;;;;;;;6.75;6.75;;;;;18.06;39.85;100614.31;2081072;28;47854;-57
2022/05/31 03:02:54;;;;;;;;;5.33;5.33;;;;;18.05;39.81;100613.44;2063854;27;48018;-56
2022/05/31 03:03:55;;;;;;;;;5.00;5.00;;;;;18.04;39.89;100611.72;2069985;28;46817;-55
2022/05/31 03:04:55;;;;;;;;;5.00;4.00;;;;;18.05;40.05;100608.09;2061169;28;46673;-56
2022/05/31 03:05:56;;;;;;;;;6.00;6.00;;;;;18.05;39.73;100610.75;2054810;28;47733;-56
2022/05/31 03:07:01;;;;;;;;;5.50;4.00;;;;;18.06;39.97;100614.31;2060016;28;48009;-56
2022/05/31 03:08:03;;;;;;;;;5.00;5.00;;;;;18.06;39.88;100611.63;2095692;28;47632;-58
2022/05/31 03:09:05;;;;;;;;;6.00;5.50;;;;;18.06;39.82;100608.94;2090357;28;48082;-55
2022/05/31 03:10:06;;;;;;;;;0.00;0.00;;;;;18.04;40.05;100610.81;2091579;28;47513;-56
2022/05/31 03:11:11;;;;;;;;;5.75;5.00;;;;;18.02;39.94;100602.84;2060635;27;47439;-58
2022/05/31 03:12:17;;;;;;;;;4.75;4.75;;;;;18.02;40.09;100605.53;2100708;27;47854;-55
2022/05/31 03:13:22;;;;;;;;;6.25;6.25;;;;;18.02;40.04;100607.34;2074269;28;47548;-56
2022/05/31 03:14:41;;;;;;;;;4.75;4.75;;;;;18.01;39.97;100608.31;2059720;28;47777;-56
2022/05/31 03:15:43;;;;;;;;;6.00;6.00;;;;;17.98;40.12;100600.44;2054058;28;48005;-56
2022/05/31 03:16:47;;;;;;;;;3.00;3.00;;;;;17.98;39.79;100603.13;2058483;28;47888;-55
2022/05/31 03:17:59;;;;;;;;;5.75;5.00;;;;;17.96;40.13;100607.69;2060121;28;47787;-57
2022/05/31 03:19:04;;;;;;;;;2.00;2.00;;;;;17.95;40.29;100609.53;2054002;28;47759;-56
2022/05/31 03:20:07;;;;;;;;;7.25;6.00;;;;;17.93;39.84;100616.78;2064012;28;47470;-57
2022/05/31 03:21:18;;;;;;;;;4.25;4.25;;;;;17.93;39.97;100614.97;2066223;28;47950;-55
2022/05/31 03:22:26;;;;;;;;;5.00;4.00;;;;;17.93;40.24;100619.47;2094370;27;47765;-56
2022/05/31 03:23:35;;;;;;;;;3.50;3.50;;;;;17.92;40.03;100621.31;2109886;27;47778;-56
2022/05/31 03:24:42;;;;;;;;;5.00;4.75;;;;;17.92;40.14;100628.50;2096754;27;47720;-57
2022/05/31 03:25:45;;;;;;;;;5.00;5.00;;;;;17.91;40.36;100626.72;2063335;28;47704;-56
2022/05/31 03:26:50;;;;;;;;;5.25;5.00;;;;;17.91;40.43;100624.94;2067024;28;47508;-56
2022/05/31 03:27:54;;;;;;;;;6.00;5.50;;;;;17.91;40.20;100624.94;2077010;28;47841;-56
2022/05/31 03:28:55;;;;;;;;;6.00;5.00;;;;;17.92;40.12;100626.66;2065500;27;47701;-55
2022/05/31 03:29:58;;;;;;;;;6.00;5.33;;;;;17.92;39.97;100626.66;2095302;28;47635;-55
2022/05/31 03:31:00;;;;;;;;;3.25;3.25;;;;;17.93;40.15;100624.84;2062664;27;47889;-57
2022/05/31 03:32:01;;;;;;;;;5.00;4.25;;;;;17.93;40.34;100619.47;2055019;28;48840;-55
2022/05/31 03:33:03;;;;;;;;;2.67;2.67;;;;;17.93;40.10;100624.84;2057202;28;47059;-57
2022/05/31 03:34:03;;;;;;;;;3.00;3.00;;;;;17.91;40.04;100624.94;2059604;28;48097;-55
2022/05/31 03:35:05;;;;;;;;;3.00;3.00;;;;;17.91;40.17;100613.28;2057409;28;48004;-58
2022/05/31 03:36:05;;;;;;;;;3.50;3.50;;;;;17.91;40.01;100614.19;2076881;28;48370;-57
2022/05/31 03:37:06;;;;;;;;;5.00;3.00;;;;;17.90;39.97;100615.13;2054782;27;47587;-55
2022/05/31 03:38:06;;;;;;;;;4.00;4.00;;;;;17.90;40.21;100615.13;2078748;28;47713;-55
2022/05/31 03:39:07;;;;;;;;;4.00;4.00;;;;;17.89;40.15;100610.69;2068998;28;47670;-56
2022/05/31 03:40:08;;;;;;;;;4.00;3.00;;;;;17.88;40.34;100614.34;2104561;27;47983;-53
2022/05/31 03:41:08;;;;;;;;;5.00;5.00;;;;;17.86;40.14;100612.69;2061974;28;47888;-56
2022/05/31 03:42:09;;;;;;;;;4.00;3.67;;;;;17.84;40.33;100611.91;2063144;28;47668;-55
2022/05/31 03:43:09;;;;;;;;;3.67;3.67;;;;;17.82;39.86;100609.31;2056250;28;47497;-56
2022/05/31 03:44:09;;;;;;;;;7.00;6.33;;;;;17.82;40.45;100603.06;2076151;28;47849;-56
2022/05/31 03:45:10;;;;;;;;;4.33;4.33;;;;;17.81;40.55;100601.34;2060159;28;48148;-57
2022/05/31 03:46:12;;;;;;;;;5.00;5.00;;;;;17.81;40.55;100606.72;2068486;28;48014;-56
2022/05/31 03:47:13;;;;;;;;;4.75;3.50;;;;;17.81;40.27;100604.91;2069276;28;48005;-56
2022/05/31 03:48:13;;;;;;;;;5.67;4.00;;;;;17.81;40.76;100604.03;2095379;27;47547;-53
2022/05/31 03:49:14;;;;;;;;;4.00;3.00;;;;;17.80;40.55;100604.97;2065911;28;47567;-56
2022/05/31 03:50:15;;;;;;;;;5.00;5.00;;;;;17.78;40.49;100607.72;2067582;28;47515;-55
2022/05/31 03:51:15;;;;;;;;;6.00;5.00;;;;;17.77;40.59;100605.97;2086490;28;47478;-55
2022/05/31 03:52:16;;;;;;;;;5.00;4.33;;;;;17.78;40.50;100609.53;2092047;28;47765;-56
2022/05/31 03:53:16;;;;;;;;;5.33;5.33;;;;;17.77;40.82;100614.03;2062112;28;48312;-57
2022/05/31 03:54:17;;;;;;;;;6.00;6.00;;;;;17.77;40.68;100613.16;2090758;28;47484;-53
2022/05/31 03:55:17;;;;;;;;;4.00;4.00;;;;;17.78;40.77;100614.91;2068114;28;47532;-56
2022/05/31 03:56:18;;;;;;;;;5.67;5.00;;;;;17.78;40.43;100615.78;2094828;27;47112;-56
2022/05/31 03:57:20;;;;;;;;;4.00;3.00;;;;;17.78;40.75;100617.59;2089790;28;47143;-58
2022/05/31 03:58:21;;;;;;;;;4.00;4.00;;;;;17.79;40.23;100622.03;2093361;27;47850;-57
2022/05/31 03:59:22;;;;;;;;;3.00;3.00;;;;;17.79;40.32;100616.66;2054570;28;47657;-56
2022/05/31 04:00:23;;;;;;;;;4.00;4.00;;;;;17.79;40.41;100616.66;2057529;28;47800;-58
2022/05/31 04:01:23;;;;;;;;;4.00;3.33;;;;;17.80;40.35;100623.78;2060942;28;46580;-56
2022/05/31 04:02:23;;;;;;;;;4.00;3.33;;;;;17.79;40.49;100622.91;2071625;28;47349;-56
2022/05/31 04:03:25;;;;;;;;;4.00;4.00;;;;;17.80;40.36;100621.09;2062613;28;47383;-56
2022/05/31 04:04:25;;;;;;;;;3.00;3.00;;;;;17.79;40.39;100614.84;2059408;28;48314;-55
2022/05/31 04:05:26;;;;;;;;;4.00;4.00;;;;;17.78;40.24;100623.81;2061573;28;47582;-55
2022/05/31 04:06:27;;;;;;;;;3.33;3.33;;;;;17.78;40.39;100604.16;2057046;28;47569;-57
2022/05/31 04:07:27;;;;;;;;;3.00;2.00;;;;;17.77;40.11;100619.41;2056265;28;47252;-57
2022/05/31 04:08:27;;;;;;;;;3.00;3.00;;;;;17.76;40.57;100617.69;2053496;28;47461;-55
2022/05/31 04:09:28;;;;;;;;;1.00;1.00;;;;;17.76;40.27;100614.13;2062075;27;47428;-58
2022/05/31 04:10:31;;;;;;;;;4.00;4.00;;;;;17.75;40.52;100620.44;2059485;28;47503;-57
2022/05/31 04:11:32;;;;;;;;;5.50;4.50;;;;;17.74;40.72;100616.91;2061709;28;47271;-56
2022/05/31 04:12:38;;;;;;;;;2.67;2.67;;;;;17.74;40.09;100621.41;2059536;28;47836;-56
2022/05/31 04:13:38;;;;;;;;;3.25;2.25;;;;;17.72;40.21;100616.13;2064415;28;47877;-58
2022/05/31 04:14:39;;;;;;;;;3.67;3.67;;;;;17.73;39.98;100616.97;2059995;28;47632;-57
2022/05/31 04:15:40;;;;;;;;;4.67;2.33;;;;;17.71;40.41;100609.00;2065903;28;45432;-56
2022/05/31 04:16:41;;;;;;;;;2.75;2.75;;;;;17.71;39.98;100613.50;2059144;28;47683;-57
2022/05/31 04:17:42;;;;;;;;;2.67;2.67;;;;;17.69;40.26;100613.59;2061719;28;47507;-57
2022/05/31 04:18:42;;;;;;;;;4.00;2.00;;;;;17.68;40.40;100605.59;2058884;28;48132;-51
2022/05/31 04:19:42;;;;;;;;;2.33;2.33;;;;;17.65;40.28;100614.66;2055379;28;47051;-57
2022/05/31 04:20:43;;;;;;;;;3.67;3.67;;;;;17.63;40.32;100608.50;2056440;28;47859;-55
2022/05/31 04:21:43;;;;;;;;;5.00;3.00;;;;;17.62;40.49;100604.94;2058801;28;47797;-56
2022/05/31 04:22:44;;;;;;;;;3.33;3.33;;;;;17.63;40.58;100604.00;2058530;28;47537;-57
2022/05/31 04:23:58;;;;;;;;;2.33;2.33;;;;;17.63;40.53;100608.50;2091946;28;47702;-56
2022/05/31 04:25:01;;;;;;;;;2.75;2.75;;;;;17.63;40.54;100605.81;2084146;28;47629;-56
2022/05/31 04:26:05;;;;;;;;;4.00;4.00;;;;;17.61;40.52;100605.91;2056458;28;47543;-56
2022/05/31 04:27:06;;;;;;;;;2.25;1.75;;;;;17.60;40.66;100603.31;2054585;28;47896;-56
2022/05/31 04:28:07;;;;;;;;;3.00;3.00;;;;;17.59;40.37;100605.13;2058197;28;48064;-56
2022/05/31 04:29:08;;;;;;;;;4.00;3.75;;;;;17.60;40.45;100600.63;2057357;28;47737;-57
2022/05/31 04:30:09;;;;;;;;;4.00;4.00;;;;;17.61;40.66;100613.09;2058251;28;47432;-56
2022/05/31 04:31:10;;;;;;;;;3.00;3.00;;;;;17.61;40.44;100605.91;2054131;28;47205;-56
2022/05/31 04:32:12;;;;;;;;;3.00;3.00;;;;;17.60;40.75;100604.16;2058723;28;47848;-56
2022/05/31 04:33:13;;;;;;;;;4.00;4.00;;;;;17.62;40.52;100599.59;2060336;28;48168;-56
2022/05/31 04:34:13;;;;;;;;;4.67;4.67;;;;;17.63;40.53;100605.81;2060250;28;47641;-57
2022/05/31 04:35:13;;;;;;;;;2.00;2.00;;;;;17.63;40.79;100606.69;2054220;28;48100;-56
2022/05/31 04:36:16;;;;;;;;;4.00;3.00;;;;;17.63;40.69;100609.38;2053974;28;47221;-56
2022/05/31 04:37:17;;;;;;;;;6.00;4.50;;;;;17.63;40.57;100605.81;2061290;28;46600;-54
2022/05/31 04:38:17;;;;;;;;;4.00;4.00;;;;;17.63;40.76;100612.06;2058493;28;47474;-58
2022/05/31 04:39:18;;;;;;;;;3.00;3.00;;;;;17.63;40.53;100604.00;2059141;28;47409;-56
2022/05/31 04:40:18;;;;;;;;;7.00;5.00;;;;;17.62;40.19;100606.78;2059337;27;48060;-57
2022/05/31 04:41:25;;;;;;;;;3.00;3.00;;;;;17.61;40.62;100605.03;2058642;28;47663;-56
2022/05/31 04:42:25;;;;;;;;;4.00;4.00;;;;;17.60;40.46;100600.63;2058634;28;47825;-56
2022/05/31 04:43:26;;;;;;;;;5.33;4.67;;;;;17.60;40.45;100603.31;2062125;28;47316;-56
2022/05/31 04:44:26;;;;;;;;;3.00;3.00;;;;;17.59;40.40;100615.00;2056485;28;46808;-56
2022/05/31 04:45:28;;;;;;;;;5.00;3.67;;;;;17.60;40.60;100611.34;2061097;28;47407;-55
2022/05/31 04:46:31;;;;;;;;;3.75;3.75;;;;;17.60;40.55;100616.72;2058566;28;48363;-57
2022/05/31 04:47:31;;;;;;;;;4.75;3.50;;;;;17.59;40.84;100613.16;2060151;28;47732;-57
2022/05/31 04:48:32;;;;;;;;;6.00;4.00;;;;;17.59;40.89;100615.84;2068092;28;47445;-58
2022/05/31 04:49:32;;;;;;;;;7.00;7.00;;;;;17.58;40.97;100614.13;2061874;28;47704;-57
2022/05/31 04:50:35;;;;;;;;;3.00;3.00;;;;;17.58;40.93;100619.50;2058172;28;47758;-56
2022/05/31 04:51:35;;;;;;;;;5.75;4.75;;;;;17.57;40.79;100617.75;2053746;28;47502;-57
2022/05/31 04:52:36;;;;;;;;;3.67;3.67;;;;;17.59;41.18;100620.34;2054466;28;47503;-57
2022/05/31 04:53:37;;;;;;;;;4.67;4.67;;;;;17.60;41.19;100619.41;2053637;28;48042;-57
2022/05/31 04:54:37;;;;;;;;;3.50;3.50;;;;;17.59;40.98;100621.22;2057857;28;47631;-57
2022/05/31 04:55:38;;;;;;;;;3.67;2.33;;;;;17.60;40.55;100625.63;2061738;28;47639;-55